McRae, GA

11:15 AM EDT on August 30, 2015 (GMT -0400)
SW of Chauncey | | Change Station
CLOSE
Current Station
Personal Weather Station
Location: Chauncey, GA
Elevation: 367 ft
Nearby Weather Stations

Elev 367 ft 32.08 °N, 83.10 °W | Updated 8 seconds ago

Mostly Cloudy
Mostly Cloudy
83.5 °F
Feels Like 82 °F
N
2.3
Wind Variable Wind from South
Gusts 2.3 mph

Today
High -- | Low -- °F
--% Chance of Precip.
Yesterday
High -- | Low -- °F
Precip. -- in
7:05 AM 7:58 PM
Full, 99% visible
Pressure 30.12 in
Visibility 10.0 miles
Clouds Mostly Cloudy 900 ft
Mostly Cloudy 1500 ft
Overcast 7000 ft
Heat Index 82 °F
Dew Point 48 °F
Humidity 29%
Rainfall 0.00 in
Snow Depth Not available.
UV 2 out of 12
Pollen 5.10 out of 12
Air Quality Not available.
Flu Activity Not available.
METAR KEZM 301455Z AUTO 00000KT 10SM BKN009 BKN015 OVC070 25/25 A3012 RMK AO2 LTG DSNT E T02540254
Pressure 30.12 in
Visibility 10.0 miles
Clouds Mostly Cloudy 900 ft
Mostly Cloudy 1500 ft
Overcast 7000 ft
Heat Index 82 °F
Dew Point 48 °F
Humidity 29%
Rainfall 0.00 in
Snow Depth Not available.
UV 2 out of 12
Pollen 5.10 out of 12
Air Quality Not available.
Flu Activity Not available.
METAR KEZM 301455Z AUTO 00000KT 10SM BKN009 BKN015 OVC070 25/25 A3012 RMK AO2 LTG DSNT E T02540254

10-Day Weather Forecast

×

Almanac

Astronomy

Aug. 30, 2015 Rise Set
Actual Time
Civil Twilight
Nautical Twilight
Astronomical Twilight
Moon
Length of Visible Light
Length of Day
Tomorrow will be .
, % of the Moon is Illuminated

Today's Extremes

State Highs State Lows

Community

WunderPhotos

Upload Photos

1,850,991 photos uploaded!

WunderBlogs® & News

Nearby

Air Quality

  Air Quality AQ Index Pollutant
Not available.

Snow Depth

Station Depth Elevation

Earthquake Activity

City Distance Mag. Time & Date
Minimum magnitude displayed is 2.5.

Coastal Water Temperatures

Place Temperature

Stations

Nearby Weather Stations

Station Location Temp. Windchill Dew Point Humidity Wind Precip. Elev Updated Type